Leconfield, United Kingdom
Current Conditions -  °F | °C
As of 5:50 PM on Friday 19 Dec 2014 (Local Time) from EGXV Reporting Station
Clear Clear  
Wind Chill: 36°   Ceiling: Unl
Heat Index: 43°   Visibility: 6mi
Dew Point: 34°   Wind: 13mph
Humidity: 70%   Direction: 250°WSW
Pressure: 29.88"   Gusts: NA
Location:  53.88°N, 0.46°W
Report Text: EGXV 191750Z AUTO 25011KT 9999 NCD 06/01 Q1012
Loading
Personal Weather Stations






























Interactive Weather Map New forecast layout! Learn more

10-Day Weather Forecast

Advertisements
Track Severe Weather on mobile